sensor_id;sensor_type;location;lat;lon;timestamp;P1;durP1;ratioP1;P2;durP2;ratioP2
10399;SDS011;10031;51.180;17.168;2022-12-08T04:52:57;20.33;;;12.87;;
10399;SDS011;10031;51.180;17.168;2022-12-08T04:55:23;19.73;;;12.27;;
10399;SDS011;10031;51.180;17.168;2022-12-08T04:57:49;18.57;;;12.17;;
10399;SDS011;10031;51.180;17.168;2022-12-08T05:00:16;19.40;;;12.60;;
10399;SDS011;10031;51.180;17.168;2022-12-08T05:02:42;19.73;;;12.73;;
10399;SDS011;10031;51.180;17.168;2022-12-08T05:05:08;20.53;;;13.27;;
10399;SDS011;10031;51.180;17.168;2022-12-08T05:07:35;19.10;;;12.97;;
10399;SDS011;10031;51.180;17.168;2022-12-08T05:10:01;21.93;;;13.53;;
10399;SDS011;10031;51.180;17.168;2022-12-08T05:12:27;21.70;;;13.10;;
10399;SDS011;10031;51.180;17.168;2022-12-08T05:14:53;19.13;;;12.67;;
10399;SDS011;10031;51.180;17.168;2022-12-08T05:17:19;21.13;;;12.77;;
10399;SDS011;10031;51.180;17.168;2022-12-08T05:19:45;20.63;;;13.60;;
10399;SDS011;10031;51.180;17.168;2022-12-08T05:22:11;24.43;;;13.97;;
10399;SDS011;10031;51.180;17.168;2022-12-08T05:24:37;23.13;;;15.03;;
10399;SDS011;10031;51.180;17.168;2022-12-08T05:30:25;24.73;;;14.30;;
10399;SDS011;10031;51.180;17.168;2022-12-08T05:32:50;17.80;;;12.33;;
10399;SDS011;10031;51.180;17.168;2022-12-08T05:38:55;20.27;;;13.00;;
10399;SDS011;10031;51.180;17.168;2022-12-08T05:48:05;20.10;;;12.90;;
10399;SDS011;10031;51.180;17.168;2022-12-08T05:50:31;19.83;;;13.20;;
10399;SDS011;10031;51.180;17.168;2022-12-08T05:56:01;23.90;;;14.20;;
10399;SDS011;10031;51.180;17.168;2022-12-08T05:58:27;22.83;;;13.73;;
10399;SDS011;10031;51.180;17.168;2022-12-08T06:00:53;20.53;;;13.60;;
10399;SDS011;10031;51.180;17.168;2022-12-08T06:03:25;20.07;;;13.27;;
10399;SDS011;10031;51.180;17.168;2022-12-08T06:05:50;20.67;;;12.67;;
10399;SDS011;10031;51.180;17.168;2022-12-08T06:08:26;20.67;;;13.13;;
10399;SDS011;10031;51.180;17.168;2022-12-08T06:10:51;21.20;;;13.60;;
10399;SDS011;10031;51.180;17.168;2022-12-08T06:13:18;24.57;;;13.67;;
10399;SDS011;10031;51.180;17.168;2022-12-08T06:15:45;23.70;;;14.37;;
10399;SDS011;10031;51.180;17.168;2022-12-08T06:18:11;23.47;;;13.37;;
10399;SDS011;10031;51.180;17.168;2022-12-08T06:20:38;23.40;;;13.90;;
10399;SDS011;10031;51.180;17.168;2022-12-08T06:23:04;23.87;;;13.80;;
10399;SDS011;10031;51.180;17.168;2022-12-08T06:25:30;25.40;;;14.40;;
10399;SDS011;10031;51.180;17.168;2022-12-08T06:27:56;26.40;;;15.27;;
10399;SDS011;10031;51.180;17.168;2022-12-08T06:30:22;24.10;;;14.47;;
10399;SDS011;10031;51.180;17.168;2022-12-08T06:32:48;23.00;;;13.87;;
10399;SDS011;10031;51.180;17.168;2022-12-08T06:35:14;23.53;;;14.73;;
10399;SDS011;10031;51.180;17.168;2022-12-08T06:37:39;22.60;;;14.73;;
10399;SDS011;10031;51.180;17.168;2022-12-08T06:40:05;22.70;;;14.97;;
10399;SDS011;10031;51.180;17.168;2022-12-08T06:42:31;30.40;;;16.10;;
10399;SDS011;10031;51.180;17.168;2022-12-08T06:45:18;25.90;;;15.80;;
10399;SDS011;10031;51.180;17.168;2022-12-08T06:47:45;26.23;;;14.93;;
10399;SDS011;10031;51.180;17.168;2022-12-08T06:50:12;26.97;;;15.70;;
10399;SDS011;10031;51.180;17.168;2022-12-08T06:52:38;27.80;;;16.70;;
10399;SDS011;10031;51.180;17.168;2022-12-08T06:55:06;30.87;;;15.77;;
10399;SDS011;10031;51.180;17.168;2022-12-08T06:57:32;29.67;;;17.73;;
10399;SDS011;10031;51.180;17.168;2022-12-08T06:59:58;32.03;;;17.97;;
10399;SDS011;10031;51.180;17.168;2022-12-08T07:02:24;28.77;;;16.77;;
10399;SDS011;10031;51.180;17.168;2022-12-08T07:04:50;30.23;;;17.63;;
10399;SDS011;10031;51.180;17.168;2022-12-08T07:07:18;29.37;;;17.57;;
10399;SDS011;10031;51.180;17.168;2022-12-08T07:09:43;31.50;;;18.23;;
10399;SDS011;10031;51.180;17.168;2022-12-08T07:12:09;29.70;;;17.23;;
10399;SDS011;10031;51.180;17.168;2022-12-08T07:14:35;32.40;;;17.30;;
10399;SDS011;10031;51.180;17.168;2022-12-08T07:17:01;32.77;;;17.73;;
10399;SDS011;10031;51.180;17.168;2022-12-08T07:19:28;35.60;;;19.27;;
10399;SDS011;10031;51.180;17.168;2022-12-08T07:21:54;37.63;;;19.07;;
10399;SDS011;10031;51.180;17.168;2022-12-08T07:24:20;34.97;;;18.07;;
10399;SDS011;10031;51.180;17.168;2022-12-08T07:26:46;32.70;;;18.77;;
10399;SDS011;10031;51.180;17.168;2022-12-08T07:29:13;37.63;;;21.03;;
10399;SDS011;10031;51.180;17.168;2022-12-08T07:31:38;34.33;;;18.00;;
10399;SDS011;10031;51.180;17.168;2022-12-08T07:34:04;33.03;;;18.97;;
10399;SDS011;10031;51.180;17.168;2022-12-08T07:36:30;31.80;;;18.17;;
10399;SDS011;10031;51.180;17.168;2022-12-08T07:38:57;32.87;;;17.73;;
10399;SDS011;10031;51.180;17.168;2022-12-08T07:41:24;33.03;;;18.20;;
10399;SDS011;10031;51.180;17.168;2022-12-08T07:43:50;30.47;;;16.90;;
10399;SDS011;10031;51.180;17.168;2022-12-08T07:46:18;34.70;;;18.83;;
10399;SDS011;10031;51.180;17.168;2022-12-08T07:48:45;34.37;;;19.50;;
10399;SDS011;10031;51.180;17.168;2022-12-08T07:51:11;34.37;;;18.93;;
10399;SDS011;10031;51.180;17.168;2022-12-08T07:53:39;34.33;;;19.03;;
10399;SDS011;10031;51.180;17.168;2022-12-08T07:56:06;34.43;;;17.50;;
10399;SDS011;10031;51.180;17.168;2022-12-08T07:58:32;30.37;;;17.00;;
10399;SDS011;10031;51.180;17.168;2022-12-08T08:00:58;33.63;;;19.87;;
10399;SDS011;10031;51.180;17.168;2022-12-08T08:03:24;37.70;;;22.50;;
10399;SDS011;10031;51.180;17.168;2022-12-08T08:05:50;31.13;;;17.57;;
10399;SDS011;10031;51.180;17.168;2022-12-08T08:08:17;32.40;;;17.00;;
10399;SDS011;10031;51.180;17.168;2022-12-08T08:10:43;33.43;;;19.33;;
10399;SDS011;10031;51.180;17.168;2022-12-08T08:13:10;35.30;;;19.50;;
10399;SDS011;10031;51.180;17.168;2022-12-08T08:15:37;30.53;;;18.80;;
10399;SDS011;10031;51.180;17.168;2022-12-08T08:18:03;29.97;;;17.83;;
10399;SDS011;10031;51.180;17.168;2022-12-08T08:20:30;31.27;;;18.80;;
10399;SDS011;10031;51.180;17.168;2022-12-08T08:22:56;36.30;;;20.27;;
10399;SDS011;10031;51.180;17.168;2022-12-08T08:25:21;32.70;;;19.93;;
10399;SDS011;10031;51.180;17.168;2022-12-08T08:27:48;34.03;;;19.87;;
10399;SDS011;10031;51.180;17.168;2022-12-08T08:30:14;31.00;;;18.77;;
10399;SDS011;10031;51.180;17.168;2022-12-08T08:32:40;26.03;;;16.97;;
10399;SDS011;10031;51.180;17.168;2022-12-08T08:35:06;28.37;;;17.60;;
10399;SDS011;10031;51.180;17.168;2022-12-08T08:37:32;22.53;;;15.00;;
10399;SDS011;10031;51.180;17.168;2022-12-08T08:40:00;27.47;;;15.47;;
10399;SDS011;10031;51.180;17.168;2022-12-08T08:42:26;24.17;;;14.93;;
10399;SDS011;10031;51.180;17.168;2022-12-08T08:44:52;20.00;;;12.83;;
10399;SDS011;10031;51.180;17.168;2022-12-08T08:47:18;29.90;;;20.07;;
10399;SDS011;10031;51.180;17.168;2022-12-08T08:49:45;23.80;;;16.77;;
10399;SDS011;10031;51.180;17.168;2022-12-08T08:52:11;21.57;;;14.30;;
10399;SDS011;10031;51.180;17.168;2022-12-08T08:54:38;17.37;;;12.27;;
10399;SDS011;10031;51.180;17.168;2022-12-08T08:57:03;18.47;;;13.47;;
10399;SDS011;10031;51.180;17.168;2022-12-08T08:59:31;17.43;;;10.07;;
10399;SDS011;10031;51.180;17.168;2022-12-08T09:01:56;18.40;;;10.53;;
10399;SDS011;10031;51.180;17.168;2022-12-08T09:04:22;18.40;;;12.43;;
10399;SDS011;10031;51.180;17.168;2022-12-08T09:06:49;17.47;;;11.30;;
10399;SDS011;10031;51.180;17.168;2022-12-08T09:09:15;17.83;;;11.13;;
10399;SDS011;10031;51.180;17.168;2022-12-08T09:11:41;13.87;;;9.77;;
10399;SDS011;10031;51.180;17.168;2022-12-08T09:14:12;22.07;;;15.17;;
10399;SDS011;10031;51.180;17.168;2022-12-08T09:16:39;14.33;;;10.23;;
10399;SDS011;10031;51.180;17.168;2022-12-08T09:19:09;17.07;;;11.40;;
10399;SDS011;10031;51.180;17.168;2022-12-08T09:21:36;17.47;;;10.73;;
10399;SDS011;10031;51.180;17.168;2022-12-08T09:24:16;18.50;;;12.73;;
10399;SDS011;10031;51.180;17.168;2022-12-08T09:26:45;17.63;;;11.03;;
10399;SDS011;10031;51.180;17.168;2022-12-08T09:29:11;15.23;;;10.23;;
10399;SDS011;10031;51.180;17.168;2022-12-08T09:31:38;15.53;;;10.10;;
10399;SDS011;10031;51.180;17.168;2022-12-08T09:34:04;18.33;;;13.63;;
10399;SDS011;10031;51.180;17.168;2022-12-08T09:36:30;18.60;;;13.13;;
10399;SDS011;10031;51.180;17.168;2022-12-08T09:38:56;14.43;;;9.40;;
10399;SDS011;10031;51.180;17.168;2022-12-08T09:41:27;14.20;;;9.90;;
10399;SDS011;10031;51.180;17.168;2022-12-08T09:46:21;15.03;;;9.73;;
10399;SDS011;10031;51.180;17.168;2022-12-08T09:48:51;15.43;;;10.47;;
10399;SDS011;10031;51.180;17.168;2022-12-08T09:51:20;14.53;;;10.07;;
10399;SDS011;10031;51.180;17.168;2022-12-08T09:54:01;13.80;;;9.53;;
10399;SDS011;10031;51.180;17.168;2022-12-08T09:56:42;21.83;;;17.87;;
10399;SDS011;10031;51.180;17.168;2022-12-08T09:59:16;17.87;;;12.20;;
10399;SDS011;10031;51.180;17.168;2022-12-08T10:01:53;17.53;;;12.50;;
10399;SDS011;10031;51.180;17.168;2022-12-08T10:17:47;14.97;;;11.70;;
10399;SDS011;10031;51.180;17.168;2022-12-08T10:20:16;17.53;;;8.50;;
10399;SDS011;10031;51.180;17.168;2022-12-08T10:22:42;13.23;;;9.50;;
10399;SDS011;10031;51.180;17.168;2022-12-08T10:25:19;13.53;;;9.97;;
10399;SDS011;10031;51.180;17.168;2022-12-08T10:27:50;12.97;;;9.80;;
10399;SDS011;10031;51.180;17.168;2022-12-08T10:30:21;14.00;;;9.40;;
10399;SDS011;10031;51.180;17.168;2022-12-08T10:32:48;13.60;;;9.20;;
10399;SDS011;10031;51.180;17.168;2022-12-08T10:35:17;15.00;;;9.47;;
10399;SDS011;10031;51.180;17.168;2022-12-08T10:37:54;14.43;;;12.20;;
10399;SDS011;10031;51.180;17.168;2022-12-08T10:40:26;13.27;;;10.20;;
10399;SDS011;10031;51.180;17.168;2022-12-08T10:42:57;17.67;;;12.20;;
10399;SDS011;10031;51.180;17.168;2022-12-08T10:45:28;14.97;;;9.30;;
10399;SDS011;10031;51.180;17.168;2022-12-08T10:48:01;13.90;;;9.90;;
10399;SDS011;10031;51.180;17.168;2022-12-08T10:52:59;11.90;;;8.87;;
10399;SDS011;10031;51.180;17.168;2022-12-08T10:55:28;13.53;;;10.87;;
10399;SDS011;10031;51.180;17.168;2022-12-08T10:58:03;13.00;;;10.50;;
10399;SDS011;10031;51.180;17.168;2022-12-08T11:00:29;14.00;;;8.90;;
10399;SDS011;10031;51.180;17.168;2022-12-08T11:02:59;16.27;;;10.43;;
10399;SDS011;10031;51.180;17.168;2022-12-08T11:05:31;13.23;;;9.03;;
10399;SDS011;10031;51.180;17.168;2022-12-08T11:07:58;14.20;;;10.43;;
10399;SDS011;10031;51.180;17.168;2022-12-08T11:13:23;12.03;;;9.60;;
10399;SDS011;10031;51.180;17.168;2022-12-08T11:15:55;11.93;;;8.30;;
10399;SDS011;10031;51.180;17.168;2022-12-08T11:20:55;14.67;;;9.30;;
10399;SDS011;10031;51.180;17.168;2022-12-08T11:23:23;13.33;;;8.70;;
10399;SDS011;10031;51.180;17.168;2022-12-08T11:25:51;12.03;;;9.60;;
10399;SDS011;10031;51.180;17.168;2022-12-08T11:28:21;12.50;;;9.07;;
10399;SDS011;10031;51.180;17.168;2022-12-08T11:30:51;12.47;;;9.07;;
10399;SDS011;10031;51.180;17.168;2022-12-08T11:33:25;12.17;;;9.50;;
10399;SDS011;10031;51.180;17.168;2022-12-08T11:35:57;24.77;;;17.30;;
10399;SDS011;10031;51.180;17.168;2022-12-08T11:38:33;14.47;;;8.93;;
10399;SDS011;10031;51.180;17.168;2022-12-08T11:41:18;16.73;;;11.00;;
10399;SDS011;10031;51.180;17.168;2022-12-08T11:46:27;20.27;;;14.00;;
10399;SDS011;10031;51.180;17.168;2022-12-08T11:49:05;20.87;;;17.03;;
10399;SDS011;10031;51.180;17.168;2022-12-08T11:54:17;17.90;;;11.27;;
10399;SDS011;10031;51.180;17.168;2022-12-08T11:56:59;18.27;;;13.10;;
10399;SDS011;10031;51.180;17.168;2022-12-08T12:01:59;18.27;;;11.90;;
10399;SDS011;10031;51.180;17.168;2022-12-08T12:18:44;17.20;;;12.20;;
10399;SDS011;10031;51.180;17.168;2022-12-08T12:24:07;16.37;;;10.57;;
10399;SDS011;10031;51.180;17.168;2022-12-08T12:27:00;13.13;;;9.77;;
10399;SDS011;10031;51.180;17.168;2022-12-08T12:29:33;14.23;;;9.50;;
10399;SDS011;10031;51.180;17.168;2022-12-08T12:32:06;15.00;;;11.90;;
10399;SDS011;10031;51.180;17.168;2022-12-08T12:34:36;12.10;;;8.13;;
10399;SDS011;10031;51.180;17.168;2022-12-08T12:37:34;14.87;;;10.47;;
10399;SDS011;10031;51.180;17.168;2022-12-08T12:40:02;15.93;;;10.53;;
10399;SDS011;10031;51.180;17.168;2022-12-08T12:42:39;14.67;;;9.33;;
10399;SDS011;10031;51.180;17.168;2022-12-08T12:58:33;19.23;;;12.00;;
10399;SDS011;10031;51.180;17.168;2022-12-08T13:03:45;17.87;;;12.00;;
10399;SDS011;10031;51.180;17.168;2022-12-08T13:06:34;13.70;;;9.30;;
10399;SDS011;10031;51.180;17.168;2022-12-08T13:09:05;20.43;;;16.03;;
10399;SDS011;10031;51.180;17.168;2022-12-08T13:11:50;13.63;;;9.60;;
10399;SDS011;10031;51.180;17.168;2022-12-08T13:14:26;16.30;;;9.33;;
10399;SDS011;10031;51.180;17.168;2022-12-08T13:16:59;13.53;;;9.20;;
10399;SDS011;10031;51.180;17.168;2022-12-08T13:19:28;16.57;;;10.67;;
10399;SDS011;10031;51.180;17.168;2022-12-08T13:21:55;17.83;;;11.27;;
10399;SDS011;10031;51.180;17.168;2022-12-08T13:24:27;17.90;;;10.83;;
10399;SDS011;10031;51.180;17.168;2022-12-08T13:29:38;15.13;;;9.77;;
10399;SDS011;10031;51.180;17.168;2022-12-08T13:32:50;17.73;;;10.37;;
10399;SDS011;10031;51.180;17.168;2022-12-08T13:34:57;17.30;;;11.33;;
10399;SDS011;10031;51.180;17.168;2022-12-08T13:37:28;17.93;;;9.93;;
10399;SDS011;10031;51.180;17.168;2022-12-08T13:40:01;18.07;;;11.10;;
10399;SDS011;10031;51.180;17.168;2022-12-08T13:42:49;19.20;;;11.83;;
10399;SDS011;10031;51.180;17.168;2022-12-08T13:45:32;17.97;;;10.87;;
10399;SDS011;10031;51.180;17.168;2022-12-08T13:48:16;19.90;;;10.47;;
10399;SDS011;10031;51.180;17.168;2022-12-08T13:51:13;17.30;;;11.30;;
10399;SDS011;10031;51.180;17.168;2022-12-08T13:56:50;17.67;;;10.80;;
10399;SDS011;10031;51.180;17.168;2022-12-08T14:01:49;18.13;;;11.17;;
10399;SDS011;10031;51.180;17.168;2022-12-08T14:04:19;16.93;;;10.37;;
10399;SDS011;10031;51.180;17.168;2022-12-08T14:06:48;15.47;;;11.17;;
10399;SDS011;10031;51.180;17.168;2022-12-08T14:09:24;14.00;;;10.60;;
10399;SDS011;10031;51.180;17.168;2022-12-08T14:15:00;16.30;;;11.83;;
10399;SDS011;10031;51.180;17.168;2022-12-08T14:17:27;16.37;;;10.47;;
10399;SDS011;10031;51.180;17.168;2022-12-08T14:22:39;17.50;;;10.37;;
10399;SDS011;10031;51.180;17.168;2022-12-08T14:25:05;16.20;;;10.67;;
10399;SDS011;10031;51.180;17.168;2022-12-08T14:27:37;20.30;;;12.20;;
10399;SDS011;10031;51.180;17.168;2022-12-08T14:35:29;20.03;;;11.77;;
10399;SDS011;10031;51.180;17.168;2022-12-08T14:37:57;18.33;;;11.50;;
10399;SDS011;10031;51.180;17.168;2022-12-08T14:40:38;18.20;;;10.30;;
10399;SDS011;10031;51.180;17.168;2022-12-08T14:48:18;20.30;;;13.13;;
10399;SDS011;10031;51.180;17.168;2022-12-08T14:56:35;32.43;;;19.23;;
10399;SDS011;10031;51.180;17.168;2022-12-08T14:59:24;34.77;;;19.90;;
10399;SDS011;10031;51.180;17.168;2022-12-08T15:01:53;32.97;;;19.20;;
10399;SDS011;10031;51.180;17.168;2022-12-08T15:04:34;34.17;;;19.27;;
10399;SDS011;10031;51.180;17.168;2022-12-08T15:07:08;34.03;;;18.53;;
10399;SDS011;10031;51.180;17.168;2022-12-08T15:09:41;49.60;;;23.03;;
10399;SDS011;10031;51.180;17.168;2022-12-08T15:14:42;34.03;;;19.60;;
10399;SDS011;10031;51.180;17.168;2022-12-08T15:20:21;26.77;;;16.87;;
10399;SDS011;10031;51.180;17.168;2022-12-08T15:22:53;31.40;;;17.33;;
10399;SDS011;10031;51.180;17.168;2022-12-08T15:25:20;30.70;;;17.87;;
10399;SDS011;10031;51.180;17.168;2022-12-08T15:27:53;32.13;;;19.17;;
10399;SDS011;10031;51.180;17.168;2022-12-08T15:30:20;34.93;;;20.50;;
10399;SDS011;10031;51.180;17.168;2022-12-08T15:32:46;43.23;;;23.40;;
10399;SDS011;10031;51.180;17.168;2022-12-08T15:35:16;41.03;;;23.73;;
10399;SDS011;10031;51.180;17.168;2022-12-08T15:37:42;45.67;;;24.80;;
10399;SDS011;10031;51.180;17.168;2022-12-08T15:40:12;41.00;;;22.43;;
10399;SDS011;10031;51.180;17.168;2022-12-08T15:42:42;42.07;;;23.10;;
10399;SDS011;10031;51.180;17.168;2022-12-08T15:45:10;47.93;;;25.17;;
10399;SDS011;10031;51.180;17.168;2022-12-08T15:47:40;43.17;;;23.60;;
10399;SDS011;10031;51.180;17.168;2022-12-08T15:50:17;39.63;;;23.37;;
10399;SDS011;10031;51.180;17.168;2022-12-08T15:52:45;38.33;;;20.97;;
10399;SDS011;10031;51.180;17.168;2022-12-08T15:55:11;38.47;;;22.10;;
10399;SDS011;10031;51.180;17.168;2022-12-08T15:57:45;45.00;;;25.00;;
10399;SDS011;10031;51.180;17.168;2022-12-08T16:02:50;40.60;;;21.77;;
10399;SDS011;10031;51.180;17.168;2022-12-08T16:05:17;43.33;;;23.17;;
10399;SDS011;10031;51.180;17.168;2022-12-08T16:07:43;47.17;;;24.10;;
10399;SDS011;10031;51.180;17.168;2022-12-08T16:10:13;50.77;;;25.63;;
10399;SDS011;10031;51.180;17.168;2022-12-08T16:12:46;72.40;;;37.23;;
10399;SDS011;10031;51.180;17.168;2022-12-08T16:15:39;68.27;;;36.10;;
10399;SDS011;10031;51.180;17.168;2022-12-08T16:18:08;59.27;;;32.00;;
10399;SDS011;10031;51.180;17.168;2022-12-08T16:20:48;47.30;;;26.30;;
10399;SDS011;10031;51.180;17.168;2022-12-08T16:23:14;53.47;;;30.97;;
10399;SDS011;10031;51.180;17.168;2022-12-08T16:25:40;50.87;;;28.03;;
10399;SDS011;10031;51.180;17.168;2022-12-08T16:28:07;51.63;;;26.90;;
10399;SDS011;10031;51.180;17.168;2022-12-08T16:30:36;55.00;;;28.27;;
10399;SDS011;10031;51.180;17.168;2022-12-08T16:33:01;50.67;;;27.77;;
10399;SDS011;10031;51.180;17.168;2022-12-08T16:35:27;54.07;;;29.50;;
10399;SDS011;10031;51.180;17.168;2022-12-08T16:37:54;53.17;;;30.67;;
10399;SDS011;10031;51.180;17.168;2022-12-08T16:40:20;52.40;;;30.97;;
10399;SDS011;10031;51.180;17.168;2022-12-08T16:42:48;52.00;;;32.33;;
10399;SDS011;10031;51.180;17.168;2022-12-08T16:45:26;48.37;;;26.67;;
10399;SDS011;10031;51.180;17.168;2022-12-08T16:47:54;53.27;;;27.77;;
10399;SDS011;10031;51.180;17.168;2022-12-08T16:52:54;53.37;;;30.30;;
10399;SDS011;10031;51.180;17.168;2022-12-08T16:55:21;56.43;;;29.10;;
10399;SDS011;10031;51.180;17.168;2022-12-08T16:57:48;46.63;;;25.70;;
10399;SDS011;10031;51.180;17.168;2022-12-08T17:00:15;47.37;;;24.20;;
10399;SDS011;10031;51.180;17.168;2022-12-08T17:02:43;47.43;;;24.13;;
10399;SDS011;10031;51.180;17.168;2022-12-08T17:05:11;42.80;;;23.33;;
10399;SDS011;10031;51.180;17.168;2022-12-08T17:07:39;54.67;;;29.73;;
10399;SDS011;10031;51.180;17.168;2022-12-08T17:10:06;40.93;;;23.30;;
10399;SDS011;10031;51.180;17.168;2022-12-08T17:12:33;45.23;;;26.23;;
10399;SDS011;10031;51.180;17.168;2022-12-08T17:15:03;47.87;;;25.43;;
10399;SDS011;10031;51.180;17.168;2022-12-08T17:17:31;58.27;;;26.50;;
10399;SDS011;10031;51.180;17.168;2022-12-08T17:19:59;47.70;;;23.93;;
10399;SDS011;10031;51.180;17.168;2022-12-08T17:22:40;37.53;;;22.17;;
10399;SDS011;10031;51.180;17.168;2022-12-08T17:25:07;46.10;;;22.73;;
10399;SDS011;10031;51.180;17.168;2022-12-08T17:27:36;46.60;;;23.83;;
10399;SDS011;10031;51.180;17.168;2022-12-08T17:30:03;41.17;;;22.60;;
10399;SDS011;10031;51.180;17.168;2022-12-08T17:32:30;43.43;;;22.37;;
10399;SDS011;10031;51.180;17.168;2022-12-08T17:34:56;40.30;;;21.77;;
10399;SDS011;10031;51.180;17.168;2022-12-08T17:37:22;38.77;;;20.80;;
10399;SDS011;10031;51.180;17.168;2022-12-08T17:39:48;39.20;;;22.63;;
10399;SDS011;10031;51.180;17.168;2022-12-08T17:42:16;46.63;;;24.03;;
10399;SDS011;10031;51.180;17.168;2022-12-08T17:44:42;53.63;;;24.67;;
10399;SDS011;10031;51.180;17.168;2022-12-08T17:47:14;45.50;;;25.43;;
10399;SDS011;10031;51.180;17.168;2022-12-08T17:49:40;51.03;;;24.37;;
10399;SDS011;10031;51.180;17.168;2022-12-08T17:52:08;37.57;;;21.53;;
10399;SDS011;10031;51.180;17.168;2022-12-08T17:54:36;38.43;;;21.50;;
10399;SDS011;10031;51.180;17.168;2022-12-08T17:57:08;40.33;;;22.93;;
10399;SDS011;10031;51.180;17.168;2022-12-08T17:59:50;47.10;;;25.10;;
10399;SDS011;10031;51.180;17.168;2022-12-08T18:02:18;47.57;;;27.13;;
10399;SDS011;10031;51.180;17.168;2022-12-08T18:04:46;48.37;;;27.20;;
10399;SDS011;10031;51.180;17.168;2022-12-08T18:07:13;57.47;;;26.57;;
10399;SDS011;10031;51.180;17.168;2022-12-08T18:09:39;47.17;;;25.53;;
10399;SDS011;10031;51.180;17.168;2022-12-08T18:12:09;53.13;;;28.03;;
10399;SDS011;10031;51.180;17.168;2022-12-08T18:14:35;55.00;;;29.97;;
10399;SDS011;10031;51.180;17.168;2022-12-08T18:17:02;59.47;;;31.23;;
10399;SDS011;10031;51.180;17.168;2022-12-08T18:19:28;59.60;;;31.43;;
10399;SDS011;10031;51.180;17.168;2022-12-08T18:21:56;65.57;;;34.77;;
10399;SDS011;10031;51.180;17.168;2022-12-08T18:24:23;56.37;;;30.40;;
10399;SDS011;10031;51.180;17.168;2022-12-08T18:26:49;60.13;;;30.43;;
10399;SDS011;10031;51.180;17.168;2022-12-08T18:29:20;52.47;;;26.17;;
10399;SDS011;10031;51.180;17.168;2022-12-08T18:31:46;46.23;;;25.20;;
10399;SDS011;10031;51.180;17.168;2022-12-08T18:34:13;52.03;;;25.40;;
10399;SDS011;10031;51.180;17.168;2022-12-08T18:36:39;46.90;;;24.63;;
10399;SDS011;10031;51.180;17.168;2022-12-08T18:39:04;47.63;;;25.87;;
10399;SDS011;10031;51.180;17.168;2022-12-08T18:41:30;44.90;;;23.27;;
10399;SDS011;10031;51.180;17.168;2022-12-08T18:43:57;42.83;;;23.40;;
10399;SDS011;10031;51.180;17.168;2022-12-08T18:46:26;41.23;;;22.63;;
10399;SDS011;10031;51.180;17.168;2022-12-08T18:48:52;38.57;;;22.20;;
10399;SDS011;10031;51.180;17.168;2022-12-08T18:51:20;37.83;;;20.67;;
10399;SDS011;10031;51.180;17.168;2022-12-08T18:53:52;39.10;;;22.40;;
10399;SDS011;10031;51.180;17.168;2022-12-08T18:56:27;45.53;;;23.30;;
10399;SDS011;10031;51.180;17.168;2022-12-08T18:58:55;40.07;;;21.83;;
10399;SDS011;10031;51.180;17.168;2022-12-08T19:01:23;45.77;;;23.40;;
10399;SDS011;10031;51.180;17.168;2022-12-08T19:03:49;46.33;;;25.03;;
10399;SDS011;10031;51.180;17.168;2022-12-08T19:06:15;47.43;;;26.87;;
10399;SDS011;10031;51.180;17.168;2022-12-08T19:08:41;47.47;;;26.23;;
10399;SDS011;10031;51.180;17.168;2022-12-08T19:11:21;47.80;;;26.27;;
10399;SDS011;10031;51.180;17.168;2022-12-08T19:13:51;52.73;;;27.50;;
10399;SDS011;10031;51.180;17.168;2022-12-08T19:16:17;57.53;;;28.60;;
10399;SDS011;10031;51.180;17.168;2022-12-08T19:18:44;53.90;;;26.80;;
10399;SDS011;10031;51.180;17.168;2022-12-08T19:21:10;52.03;;;28.73;;
10399;SDS011;10031;51.180;17.168;2022-12-08T19:23:38;51.23;;;26.73;;
10399;SDS011;10031;51.180;17.168;2022-12-08T19:26:04;48.77;;;25.13;;
10399;SDS011;10031;51.180;17.168;2022-12-08T19:28:31;49.93;;;26.03;;
10399;SDS011;10031;51.180;17.168;2022-12-08T19:30:59;49.80;;;26.40;;
10399;SDS011;10031;51.180;17.168;2022-12-08T19:33:28;42.63;;;24.47;;
10399;SDS011;10031;51.180;17.168;2022-12-08T19:35:54;41.97;;;23.63;;
10399;SDS011;10031;51.180;17.168;2022-12-08T19:38:20;46.23;;;24.07;;
10399;SDS011;10031;51.180;17.168;2022-12-08T19:40:47;42.80;;;23.73;;
10399;SDS011;10031;51.180;17.168;2022-12-08T19:43:31;44.83;;;23.00;;
10399;SDS011;10031;51.180;17.168;2022-12-08T19:46:16;45.23;;;24.10;;
10399;SDS011;10031;51.180;17.168;2022-12-08T19:48:46;46.67;;;23.33;;
10399;SDS011;10031;51.180;17.168;2022-12-08T19:51:12;40.00;;;21.73;;
10399;SDS011;10031;51.180;17.168;2022-12-08T19:53:38;43.77;;;22.57;;
10399;SDS011;10031;51.180;17.168;2022-12-08T19:56:06;39.03;;;21.30;;
10399;SDS011;10031;51.180;17.168;2022-12-08T19:58:31;39.17;;;20.87;;
10399;SDS011;10031;51.180;17.168;2022-12-08T20:00:58;40.33;;;21.40;;
10399;SDS011;10031;51.180;17.168;2022-12-08T20:03:24;35.77;;;19.67;;
10399;SDS011;10031;51.180;17.168;2022-12-08T20:05:50;39.27;;;20.93;;
10399;SDS011;10031;51.180;17.168;2022-12-08T20:10:52;34.97;;;20.00;;
10399;SDS011;10031;51.180;17.168;2022-12-08T20:13:20;38.20;;;19.73;;
10399;SDS011;10031;51.180;17.168;2022-12-08T20:16:05;33.23;;;17.93;;
10399;SDS011;10031;51.180;17.168;2022-12-08T20:18:34;31.50;;;17.20;;
10399;SDS011;10031;51.180;17.168;2022-12-08T20:21:00;29.97;;;16.40;;
10399;SDS011;10031;51.180;17.168;2022-12-08T20:23:26;29.17;;;16.30;;
10399;SDS011;10031;51.180;17.168;2022-12-08T20:25:52;31.57;;;17.83;;
10399;SDS011;10031;51.180;17.168;2022-12-08T20:28:19;35.13;;;18.87;;
10399;SDS011;10031;51.180;17.168;2022-12-08T20:30:46;33.50;;;18.03;;
10399;SDS011;10031;51.180;17.168;2022-12-08T20:33:14;30.57;;;17.67;;
10399;SDS011;10031;51.180;17.168;2022-12-08T20:35:42;31.33;;;16.57;;
10399;SDS011;10031;51.180;17.168;2022-12-08T20:38:08;32.83;;;17.07;;
10399;SDS011;10031;51.180;17.168;2022-12-08T20:40:35;29.93;;;17.57;;
10399;SDS011;10031;51.180;17.168;2022-12-08T20:43:06;32.40;;;18.07;;
10399;SDS011;10031;51.180;17.168;2022-12-08T20:45:32;29.67;;;16.60;;
10399;SDS011;10031;51.180;17.168;2022-12-08T20:51:12;32.23;;;16.63;;
10399;SDS011;10031;51.180;17.168;2022-12-08T20:53:39;35.67;;;18.40;;
10399;SDS011;10031;51.180;17.168;2022-12-08T20:56:05;33.47;;;17.60;;
10399;SDS011;10031;51.180;17.168;2022-12-08T20:58:49;30.80;;;17.43;;
10399;SDS011;10031;51.180;17.168;2022-12-08T21:01:18;30.43;;;17.53;;
10399;SDS011;10031;51.180;17.168;2022-12-08T21:03:45;30.63;;;16.80;;
10399;SDS011;10031;51.180;17.168;2022-12-08T21:09:10;28.13;;;16.03;;
10399;SDS011;10031;51.180;17.168;2022-12-08T21:11:41;30.70;;;17.27;;
10399;SDS011;10031;51.180;17.168;2022-12-08T21:14:08;33.93;;;18.87;;
10399;SDS011;10031;51.180;17.168;2022-12-08T21:16:34;33.97;;;18.87;;
10399;SDS011;10031;51.180;17.168;2022-12-08T21:19:01;31.23;;;17.33;;
10399;SDS011;10031;51.180;17.168;2022-12-08T21:21:27;30.20;;;16.87;;
10399;SDS011;10031;51.180;17.168;2022-12-08T21:23:55;32.53;;;17.90;;
10399;SDS011;10031;51.180;17.168;2022-12-08T21:26:21;35.73;;;19.40;;